Time;durP1;ratioP1;P1;durP2;ratioP2;P2;SDS_P1;SDS_P2;PMS_P1;PMS_P2;Temp;Humidity;BMP_temperature;BMP_pressure;BME280_temperature;BME280_humidity;BME280_pressure;Samples;Min_cycle;Max_cycle;Signal;HPM_P1;HPM_P2
2023/10/28 00:00:45;;;;;;;28.00;18.10;;;10.00;99.90;;;;;;5015794;28;20201;-70
2023/10/28 00:03:11;;;;;;;34.38;21.10;;;10.20;99.90;;;;;;5030342;28;20046;-70
2023/10/28 00:05:37;;;;;;;32.50;19.15;;;10.20;99.90;;;;;;5031749;28;20740;-70
2023/10/28 00:08:04;;;;;;;30.52;20.63;;;10.20;99.90;;;;;;5029443;28;20088;-70
2023/10/28 00:10:31;;;;;;;36.42;21.25;;;10.20;99.90;;;;;;5012503;28;20095;-69
2023/10/28 00:12:57;;;;;;;34.38;21.52;;;10.20;99.90;;;;;;5029060;28;20056;-69
2023/10/28 00:15:24;;;;;;;35.20;21.15;;;10.10;99.90;;;;;;5029069;28;20045;-70
2023/10/28 00:17:50;;;;;;;34.85;21.45;;;10.00;99.90;;;;;;5030188;28;20123;-70
2023/10/28 00:20:18;;;;;;;34.92;20.58;;;10.10;99.90;;;;;;5030102;28;20033;-68
2023/10/28 00:22:48;;;;;;;37.83;22.38;;;10.10;99.90;;;;;;5028877;28;20444;-70
2023/10/28 00:25:15;;;;;;;35.95;21.27;;;10.20;99.90;;;;;;5012721;28;20384;-69
2023/10/28 00:27:41;;;;;;;34.70;22.10;;;10.20;99.90;;;;;;5012570;28;20048;-70
2023/10/28 00:30:09;;;;;;;40.20;22.88;;;9.90;99.90;;;;;;4996275;28;20045;-69
2023/10/28 00:32:36;;;;;;;41.92;23.08;;;10.20;99.90;;;;;;5029890;28;20529;-69
2023/10/28 00:35:02;;;;;;;34.63;22.10;;;10.10;99.90;;;;;;5012480;28;20467;-69
2023/10/28 00:37:27;;;;;;;31.90;18.55;;;10.20;99.90;;;;;;5028054;28;20045;-70
2023/10/28 00:39:55;;;;;;;35.15;20.60;;;10.10;99.90;;;;;;5029022;28;20049;-70
2023/10/28 00:42:21;;;;;;;29.65;18.85;;;10.00;99.90;;;;;;5011837;28;20033;-70
2023/10/28 00:44:47;;;;;;;21.40;14.80;;;10.00;99.90;;;;;;5028386;28;20048;-69
2023/10/28 00:47:13;;;;;;;25.73;16.08;;;10.00;99.90;;;;;;5029229;28;20033;-69
2023/10/28 00:49:40;;;;;;;29.50;17.88;;;10.20;99.90;;;;;;5004987;28;20042;-69
2023/10/28 00:52:06;;;;;;;31.83;18.35;;;10.20;99.90;;;;;;5027913;28;20072;-70
2023/10/28 00:54:33;;;;;;;33.60;18.60;;;10.20;99.90;;;;;;5012205;28;20539;-69
2023/10/28 00:56:58;;;;;;;28.52;18.23;;;10.00;99.90;;;;;;5011031;28;20044;-70
2023/10/28 00:59:27;;;;;;;34.38;19.73;;;10.10;99.90;;;;;;5012570;28;20091;-69
2023/10/28 01:01:53;;;;;;;28.98;17.23;;;10.10;99.90;;;;;;5029354;28;20045;-68
2023/10/28 01:04:20;;;;;;;31.90;18.88;;;10.00;99.90;;;;;;5010873;28;20060;-69
2023/10/28 01:06:46;;;;;;;32.10;19.10;;;10.20;99.90;;;;;;5012920;28;20115;-69
2023/10/28 01:09:12;;;;;;;31.02;18.00;;;9.90;99.90;;;;;;5031088;28;20348;-69
2023/10/28 01:11:39;;;;;;;25.77;16.13;;;10.10;99.90;;;;;;5014629;28;20076;-69
2023/10/28 01:14:06;;;;;;;29.88;16.95;;;10.10;99.90;;;;;;5014613;28;20120;-69
2023/10/28 01:16:33;;;;;;;29.30;18.48;;;10.00;99.90;;;;;;5009940;28;20051;-70
2023/10/28 01:18:59;;;;;;;35.20;20.42;;;10.30;99.90;;;;;;5030777;28;20040;-69
2023/10/28 01:21:27;;;;;;;31.95;18.83;;;10.00;99.90;;;;;;5015798;28;20059;-68
2023/10/28 01:23:54;;;;;;;37.28;21.83;;;10.20;99.90;;;;;;5014788;28;20450;-69
2023/10/28 01:26:20;;;;;;;37.55;22.92;;;10.00;99.90;;;;;;5031282;28;20845;-69
2023/10/28 01:28:46;;;;;;;36.65;23.85;;;10.00;99.90;;;;;;4998144;28;20043;-69
2023/10/28 01:31:12;;;;;;;38.22;22.65;;;10.00;99.90;;;;;;5031646;28;20040;-69
2023/10/28 01:33:38;;;;;;;40.83;24.60;;;10.20;99.90;;;;;;5014481;28;20143;-69
2023/10/28 01:36:04;;;;;;;42.90;24.65;;;10.00;99.90;;;;;;5013888;28;20363;-69
2023/10/28 01:38:30;;;;;;;44.60;24.92;;;10.20;99.90;;;;;;5014696;28;20135;-70
2023/10/28 01:40:56;;;;;;;36.75;23.52;;;10.20;99.90;;;;;;4998352;28;20132;-70
2023/10/28 01:43:22;;;;;;;39.65;23.63;;;10.30;99.90;;;;;;5030834;28;20511;-68
2023/10/28 01:45:48;;;;;;;42.65;25.58;;;10.10;99.90;;;;;;5031349;28;20143;-68
2023/10/28 01:48:14;;;;;;;47.45;26.13;;;10.20;99.90;;;;;;5013982;28;20309;-69
2023/10/28 01:50:41;;;;;;;44.55;26.73;;;10.00;99.90;;;;;;4997801;28;20650;-69
2023/10/28 01:53:07;;;;;;;47.95;28.90;;;10.00;99.90;;;;;;5031206;28;20067;-69
2023/10/28 01:55:34;;;;;;;50.45;30.13;;;10.10;99.90;;;;;;5014913;28;20540;-69
2023/10/28 01:58:00;;;;;;;59.45;32.63;;;10.00;99.90;;;;;;5030917;28;20195;-70
2023/10/28 02:00:30;;;;;;;56.45;31.55;;;10.30;99.90;;;;;;5030811;28;20040;-70
2023/10/28 02:02:57;;;;;;;52.22;31.60;;;10.30;99.90;;;;;;5029215;28;20037;-70
2023/10/28 02:05:23;;;;;;;56.65;33.15;;;10.00;99.90;;;;;;5031049;28;20045;-70
2023/10/28 02:07:49;;;;;;;51.50;30.27;;;10.00;99.90;;;;;;5014438;28;20452;-68
2023/10/28 02:10:14;;;;;;;51.13;27.52;;;10.30;99.90;;;;;;4999227;28;20048;-69
2023/10/28 02:12:40;;;;;;;54.75;30.42;;;10.30;99.90;;;;;;5030837;28;20036;-68
2023/10/28 02:15:09;;;;;;;52.55;30.63;;;10.30;99.90;;;;;;5031056;28;20113;-69
2023/10/28 02:17:35;;;;;;;58.20;30.77;;;10.00;99.90;;;;;;5031461;28;20040;-69
2023/10/28 02:20:03;;;;;;;60.80;32.95;;;10.30;99.90;;;;;;5031741;28;20036;-69
2023/10/28 02:22:31;;;;;;;58.15;32.75;;;10.20;99.90;;;;;;5013371;28;20491;-69
2023/10/28 02:24:57;;;;;;;59.40;32.97;;;10.30;99.90;;;;;;5031494;28;20470;-70
2023/10/28 02:27:23;;;;;;;65.80;32.28;;;10.30;99.90;;;;;;5030297;28;20043;-69
2023/10/28 02:29:49;;;;;;;70.38;34.88;;;10.10;99.90;;;;;;5007724;28;20056;-70
2023/10/28 02:32:20;;;;;;;65.53;34.42;;;10.30;99.90;;;;;;5014369;28;20751;-68
2023/10/28 02:34:46;;;;;;;66.97;34.40;;;10.20;99.90;;;;;;5008587;28;20361;-69
2023/10/28 02:37:14;;;;;;;72.30;34.67;;;10.30;99.90;;;;;;5030839;28;20028;-68
2023/10/28 02:39:40;;;;;;;69.05;32.60;;;10.10;99.90;;;;;;5014623;28;20296;-69
2023/10/28 02:42:05;;;;;;;62.17;31.83;;;10.40;99.90;;;;;;5013730;28;20273;-69
2023/10/28 02:44:32;;;;;;;62.13;32.95;;;10.30;99.90;;;;;;4999545;28;20051;-68
2023/10/28 02:46:58;;;;;;;62.38;32.05;;;10.10;99.90;;;;;;5013786;28;20411;-68
2023/10/28 02:49:24;;;;;;;72.43;36.17;;;10.20;99.90;;;;;;5031024;28;20040;-69
2023/10/28 02:51:49;;;;;;;73.47;36.38;;;10.40;99.90;;;;;;5030742;28;20438;-68
2023/10/28 02:54:15;;;;;;;73.35;36.90;;;10.30;99.90;;;;;;5031667;28;20058;-69
2023/10/28 02:56:41;;;;;;;84.72;38.50;;;10.10;99.90;;;;;;5014114;28;20044;-70
2023/10/28 02:59:08;;;;;;;76.90;38.53;;;10.10;99.90;;;;;;4997876;28;20047;-69
2023/10/28 03:01:39;;;;;;;76.70;37.88;;;10.10;99.90;;;;;;5032852;28;20546;-69
2023/10/28 03:04:06;;;;;;;70.00;37.45;;;10.40;99.90;;;;;;5033469;28;20047;-69
2023/10/28 03:06:32;;;;;;;76.70;39.38;;;10.20;99.90;;;;;;5034091;28;20040;-69
2023/10/28 03:08:58;;;;;;;73.55;37.97;;;10.40;99.90;;;;;;5017276;28;20347;-69
2023/10/28 03:11:24;;;;;;;91.93;41.42;;;10.20;99.90;;;;;;4984095;28;20475;-69
2023/10/28 03:13:50;;;;;;;79.45;37.47;;;10.20;99.90;;;;;;5031964;28;20040;-69
2023/10/28 03:16:16;;;;;;;83.22;38.88;;;10.10;99.90;;;;;;5033643;28;20037;-69
2023/10/28 03:18:41;;;;;;;82.75;39.38;;;10.30;99.90;;;;;;5016554;28;20048;-69
2023/10/28 03:21:07;;;;;;;84.82;39.08;;;10.00;99.90;;;;;;5050986;28;20110;-70
2023/10/28 03:23:33;;;;;;;91.45;42.63;;;10.30;99.90;;;;;;5033452;28;20255;-68
2023/10/28 03:25:59;;;;;;;90.13;42.40;;;10.30;99.90;;;;;;5015762;28;20037;-68
2023/10/28 03:28:24;;;;;;;91.50;40.35;;;10.00;99.90;;;;;;5016832;28;20447;-69
2023/10/28 03:30:50;;;;;;;80.22;38.03;;;10.10;99.90;;;;;;5001632;28;20566;-69
2023/10/28 03:33:16;;;;;;;92.47;43.08;;;10.30;99.90;;;;;;5032842;28;20510;-69
2023/10/28 03:35:42;;;;;;;87.38;40.88;;;10.00;99.90;;;;;;5032844;28;20745;-69
2023/10/28 03:38:09;;;;;;;89.65;41.97;;;10.10;99.90;;;;;;5033682;28;20040;-69
2023/10/28 03:40:36;;;;;;;90.70;43.25;;;10.10;99.90;;;;;;5033017;28;20603;-69
2023/10/28 03:43:02;;;;;;;89.80;44.58;;;10.40;99.90;;;;;;5016656;28;20036;-70
2023/10/28 03:45:28;;;;;;;79.95;42.92;;;10.10;99.90;;;;;;5016079;28;20411;-69
2023/10/28 03:47:54;;;;;;;81.00;43.25;;;10.10;99.90;;;;;;5016391;28;20364;-69
2023/10/28 03:50:20;;;;;;;80.05;41.90;;;10.40;99.90;;;;;;5009587;28;20570;-69
2023/10/28 03:52:46;;;;;;;84.40;43.25;;;10.10;99.90;;;;;;5032483;28;20047;-69
2023/10/28 03:55:12;;;;;;;85.25;43.38;;;10.10;99.90;;;;;;5033230;28;20105;-69
2023/10/28 03:57:37;;;;;;;85.00;43.85;;;10.30;99.90;;;;;;5016363;28;20298;-69
2023/10/28 04:00:04;;;;;;;91.20;45.65;;;10.20;99.90;;;;;;4999726;28;20197;-69
2023/10/28 04:02:29;;;;;;;82.15;44.60;;;10.10;99.90;;;;;;5031478;28;20036;-69
2023/10/28 04:04:56;;;;;;;82.65;45.22;;;10.30;99.90;;;;;;5015603;28;20415;-69
2023/10/28 04:07:22;;;;;;;85.70;45.40;;;10.40;99.90;;;;;;5015402;28;20052;-70
2023/10/28 04:09:47;;;;;;;80.13;42.50;;;10.30;99.90;;;;;;5016688;28;20631;-69
2023/10/28 04:12:13;;;;;;;93.90;43.63;;;10.20;99.90;;;;;;5014868;28;20040;-69
2023/10/28 04:14:39;;;;;;;80.28;43.53;;;10.20;99.90;;;;;;5031670;28;20053;-69
2023/10/28 04:17:05;;;;;;;82.07;42.78;;;10.40;99.90;;;;;;5032727;28;20044;-68
2023/10/28 04:19:31;;;;;;;76.70;41.17;;;10.40;99.90;;;;;;4999990;28;20608;-69
2023/10/28 04:21:56;;;;;;;74.10;42.88;;;10.30;99.90;;;;;;4982813;28;20338;-69
2023/10/28 04:24:23;;;;;;;77.10;41.28;;;10.40;99.90;;;;;;5015982;28;20482;-69
2023/10/28 04:26:49;;;;;;;78.47;43.30;;;10.30;99.90;;;;;;5031807;28;20463;-69
2023/10/28 04:29:15;;;;;;;70.10;40.90;;;10.40;99.90;;;;;;5015994;28;20040;-69
2023/10/28 04:31:40;;;;;;;79.22;44.40;;;10.40;99.90;;;;;;5016472;28;20428;-69
2023/10/28 04:34:06;;;;;;;81.13;45.40;;;10.40;99.90;;;;;;5015252;28;20077;-68
2023/10/28 04:36:32;;;;;;;74.30;41.03;;;10.40;99.90;;;;;;4983647;28;20348;-68
2023/10/28 04:38:57;;;;;;;69.68;41.90;;;10.30;99.90;;;;;;4999629;28;20044;-70
2023/10/28 04:41:23;;;;;;;69.25;40.38;;;10.40;99.90;;;;;;5032558;28;20044;-69
2023/10/28 04:43:49;;;;;;;66.05;40.67;;;10.30;99.90;;;;;;4999004;28;20283;-69
2023/10/28 04:46:15;;;;;;;77.43;44.20;;;10.30;99.90;;;;;;5015737;28;20051;-69
2023/10/28 04:48:46;;;;;;;65.75;40.55;;;10.40;99.90;;;;;;4998466;28;20040;-69
2023/10/28 04:51:13;;;;;;;60.80;38.08;;;10.20;99.90;;;;;;5010320;28;20044;-70
2023/10/28 04:53:39;;;;;;;65.20;39.60;;;10.20;99.90;;;;;;5014816;28;20059;-69
2023/10/28 04:56:08;;;;;;;65.45;38.75;;;10.40;99.90;;;;;;5010085;28;20040;-69
2023/10/28 04:58:34;;;;;;;63.53;38.33;;;10.20;99.90;;;;;;5013780;28;20794;-69
2023/10/28 05:01:00;;;;;;;68.57;39.70;;;10.20;99.90;;;;;;5012703;28;20588;-69
2023/10/28 05:03:26;;;;;;;64.35;40.90;;;10.40;99.90;;;;;;5013832;28;20044;-69
2023/10/28 05:05:51;;;;;;;67.88;40.20;;;10.20;99.90;;;;;;5030309;28;20044;-69
2023/10/28 05:08:17;;;;;;;61.85;36.60;;;10.40;99.90;;;;;;5014061;28;20361;-69
2023/10/28 05:10:43;;;;;;;68.28;40.53;;;10.20;99.90;;;;;;5014673;28;20422;-70
2023/10/28 05:13:10;;;;;;;62.40;38.83;;;10.30;99.90;;;;;;5031176;28;20054;-70
2023/10/28 05:15:36;;;;;;;74.15;39.05;;;10.20;99.90;;;;;;5014731;28;20055;-68
2023/10/28 05:18:02;;;;;;;65.72;39.22;;;10.10;99.90;;;;;;4998504;28;20152;-69
2023/10/28 05:20:28;;;;;;;67.45;38.33;;;10.30;99.90;;;;;;5029907;28;20818;-68
2023/10/28 05:22:53;;;;;;;79.72;41.15;;;10.20;99.90;;;;;;5030236;28;20048;-68
2023/10/28 05:25:19;;;;;;;64.70;38.65;;;10.20;99.90;;;;;;5031361;28;20040;-68
2023/10/28 05:27:45;;;;;;;79.45;42.85;;;10.20;99.90;;;;;;5031043;28;20102;-69
2023/10/28 05:30:11;;;;;;;77.55;41.08;;;10.30;99.90;;;;;;4998576;28;20044;-69
2023/10/28 05:32:39;;;;;;;74.30;39.55;;;10.10;99.90;;;;;;5012980;28;20052;-69
2023/10/28 05:35:08;;;;;;;77.63;41.00;;;10.00;99.90;;;;;;5018546;28;20080;-68
2023/10/28 05:37:34;;;;;;;65.32;36.85;;;10.00;99.90;;;;;;5030491;28;20063;-69
2023/10/28 05:39:59;;;;;;;74.40;39.30;;;10.30;99.90;;;;;;5013974;28;20044;-68
2023/10/28 05:42:25;;;;;;;81.65;43.10;;;10.00;99.90;;;;;;5028344;28;20668;-69
2023/10/28 05:44:51;;;;;;;75.60;41.10;;;10.10;99.90;;;;;;5001189;28;20036;-68
2023/10/28 05:47:16;;;;;;;71.93;40.35;;;10.30;99.90;;;;;;5002373;28;20139;-70
2023/10/28 05:49:42;;;;;;;79.43;42.30;;;10.20;99.90;;;;;;5030855;28;20159;-70
2023/10/28 05:52:12;;;;;;;77.22;42.33;;;10.10;99.90;;;;;;5030708;28;20059;-70
2023/10/28 05:54:38;;;;;;;79.20;42.25;;;10.30;99.90;;;;;;5002116;28;20044;-69
2023/10/28 05:57:03;;;;;;;79.63;42.88;;;10.00;99.90;;;;;;4987614;28;20445;-69
2023/10/28 05:59:31;;;;;;;72.55;42.13;;;10.30;99.90;;;;;;5030467;28;20040;-69
2023/10/28 06:01:56;;;;;;;72.18;41.13;;;10.20;99.90;;;;;;5013827;28;20086;-69
2023/10/28 06:04:22;;;;;;;69.82;40.10;;;10.10;99.90;;;;;;5031557;28;20147;-68
2023/10/28 06:06:48;;;;;;;78.43;40.70;;;10.20;99.90;;;;;;5029193;28;20166;-68
2023/10/28 06:09:15;;;;;;;72.65;42.22;;;10.10;99.90;;;;;;5005069;28;20151;-68
2023/10/28 06:11:41;;;;;;;80.03;42.45;;;10.20;99.90;;;;;;5029290;28;20048;-70
2023/10/28 06:14:07;;;;;;;76.00;39.00;;;10.40;99.90;;;;;;5014077;28;20045;-70
2023/10/28 06:16:34;;;;;;;75.10;39.53;;;10.10;99.90;;;;;;5012587;28;20075;-69
2023/10/28 06:19:00;;;;;;;79.95;40.53;;;10.10;99.90;;;;;;5014432;28;20044;-69
2023/10/28 06:21:26;;;;;;;88.53;46.00;;;10.10;99.90;;;;;;4995218;28;20040;-69
2023/10/28 06:23:55;;;;;;;85.78;42.90;;;10.00;99.90;;;;;;5030431;28;20538;-69
2023/10/28 06:26:21;;;;;;;94.93;46.42;;;10.10;99.90;;;;;;5030972;28;20502;-68
2023/10/28 06:28:47;;;;;;;77.05;42.40;;;10.30;99.90;;;;;;5013732;28;20114;-69
2023/10/28 06:31:14;;;;;;;80.53;40.45;;;10.10;99.90;;;;;;5028841;28;20048;-69
2023/10/28 06:33:40;;;;;;;81.30;40.92;;;9.90;99.90;;;;;;5014363;28;20287;-68
2023/10/28 06:36:06;;;;;;;69.30;37.30;;;10.30;99.90;;;;;;5014941;28;20318;-69
2023/10/28 06:38:32;;;;;;;74.35;39.15;;;10.30;99.90;;;;;;5017151;28;20155;-70
2023/10/28 06:40:59;;;;;;;90.70;44.10;;;10.20;99.90;;;;;;5001938;28;20046;-70
2023/10/28 06:43:24;;;;;;;90.75;42.38;;;10.10;99.90;;;;;;5034838;28;20032;-69
2023/10/28 06:45:50;;;;;;;86.05;43.03;;;10.40;99.90;;;;;;5008854;28;20315;-68
2023/10/28 06:48:16;;;;;;;89.22;41.85;;;10.10;99.90;;;;;;5017568;28;20123;-69
2023/10/28 06:50:42;;;;;;;96.15;44.17;;;10.30;99.90;;;;;;5032664;28;20056;-70
2023/10/28 06:53:09;;;;;;;82.75;40.58;;;10.10;99.90;;;;;;5017534;28;20069;-70
2023/10/28 06:55:35;;;;;;;92.75;42.33;;;10.30;99.90;;;;;;5033280;28;20355;-69
2023/10/28 06:58:00;;;;;;;97.70;44.35;;;10.20;99.90;;;;;;5026126;28;20048;-69
2023/10/28 07:00:29;;;;;;;91.88;41.42;;;10.10;99.90;;;;;;5018152;28;20558;-69
2023/10/28 07:02:56;;;;;;;90.00;43.15;;;10.20;99.90;;;;;;5016671;28;20454;-69
2023/10/28 07:05:24;;;;;;;89.97;42.63;;;10.10;99.90;;;;;;5034474;28;20098;-69
2023/10/28 07:07:50;;;;;;;85.63;42.50;;;10.10;99.90;;;;;;4999649;28;20582;-69
2023/10/28 07:10:16;;;;;;;96.65;43.60;;;10.10;99.90;;;;;;5032551;28;20055;-69
2023/10/28 07:12:42;;;;;;;92.75;43.95;;;10.20;99.90;;;;;;5031428;28;20044;-69
2023/10/28 07:15:12;;;;;;;90.80;41.90;;;10.30;99.90;;;;;;5031391;28;20036;-69
2023/10/28 07:17:39;;;;;;;97.85;44.03;;;10.10;99.90;;;;;;5030757;28;20080;-70
2023/10/28 07:20:06;;;;;;;89.20;41.55;;;10.40;99.90;;;;;;5014243;28;20063;-70
2023/10/28 07:22:31;;;;;;;79.32;40.28;;;10.30;99.90;;;;;;5016224;28;20039;-69
2023/10/28 07:24:57;;;;;;;73.75;38.78;;;10.20;99.90;;;;;;4997566;28;20313;-70
2023/10/28 07:27:23;;;;;;;69.10;36.35;;;10.20;99.90;;;;;;4999155;28;20102;-69
2023/10/28 07:29:49;;;;;;;58.85;35.28;;;10.20;99.90;;;;;;5032743;28;20395;-69
2023/10/28 07:32:15;;;;;;;60.47;33.88;;;10.50;99.90;;;;;;5032453;28;20505;-69
2023/10/28 07:34:40;;;;;;;58.30;32.05;;;10.40;99.90;;;;;;5016459;28;20523;-70
2023/10/28 07:37:06;;;;;;;62.10;34.05;;;10.30;99.90;;;;;;5000144;28;20290;-69
2023/10/28 07:39:32;;;;;;;61.72;33.90;;;10.60;99.90;;;;;;5032877;28;20600;-69
2023/10/28 07:41:58;;;;;;;59.40;33.45;;;10.50;99.90;;;;;;5033169;28;20380;-70
2023/10/28 07:44:24;;;;;;;54.92;33.17;;;10.40;99.90;;;;;;5032976;28;20063;-70
2023/10/28 07:46:50;;;;;;;51.80;31.48;;;10.50;99.90;;;;;;5017352;28;20103;-70
2023/10/28 07:49:16;;;;;;;48.92;28.90;;;10.80;99.90;;;;;;5016817;28;20066;-67
2023/10/28 07:51:42;;;;;;;52.65;29.30;;;10.60;99.90;;;;;;5015711;28;20489;-70
2023/10/28 07:54:10;;;;;;;47.67;28.33;;;10.90;99.90;;;;;;5016278;28;20040;-69
2023/10/28 07:56:36;;;;;;;48.95;29.73;;;10.70;99.90;;;;;;5024062;28;20037;-69
2023/10/28 07:59:03;;;;;;;38.65;25.10;;;10.90;99.90;;;;;;5025560;28;20315;-70
2023/10/28 08:01:29;;;;;;;40.42;24.98;;;10.90;99.90;;;;;;4999152;28;20072;-69
2023/10/28 08:03:56;;;;;;;44.88;27.98;;;10.70;99.90;;;;;;5032235;28;20040;-69
2023/10/28 08:06:23;;;;;;;44.38;24.65;;;10.70;99.90;;;;;;4998598;28;20028;-70
2023/10/28 08:08:49;;;;;;;37.20;22.25;;;10.70;99.90;;;;;;4998343;28;20285;-69
2023/10/28 08:11:16;;;;;;;34.05;20.50;;;10.70;99.90;;;;;;5017656;28;20048;-70
2023/10/28 08:13:43;;;;;;;38.72;22.38;;;10.90;99.90;;;;;;5034238;28;20499;-70
2023/10/28 08:16:09;;;;;;;29.55;21.05;;;10.70;99.90;;;;;;5017796;28;20412;-70
2023/10/28 08:18:40;;;;;;;30.25;20.15;;;10.70;99.90;;;;;;5017187;28;20103;-69
2023/10/28 08:21:07;;;;;;;32.45;19.42;;;10.70;99.90;;;;;;5015864;28;20405;-70
2023/10/28 08:23:33;;;;;;;28.00;17.20;;;10.70;99.90;;;;;;5033428;28;20434;-70
2023/10/28 08:25:59;;;;;;;20.13;13.35;;;10.80;99.90;;;;;;5017218;28;20040;-69
2023/10/28 08:28:27;;;;;;;18.88;14.45;;;10.90;99.90;;;;;;5034297;28;20233;-70
2023/10/28 08:30:54;;;;;;;18.48;13.27;;;10.90;99.90;;;;;;5017027;28;20299;-71
2023/10/28 08:33:20;;;;;;;14.95;12.05;;;10.80;99.90;;;;;;5001303;28;20133;-71
2023/10/28 08:35:51;;;;;;;15.25;12.15;;;10.90;99.90;;;;;;5033096;28;20048;-70
2023/10/28 08:38:17;;;;;;;16.45;11.57;;;11.00;99.90;;;;;;5017454;28;20044;-70
2023/10/28 08:40:47;;;;;;;14.77;10.30;;;10.90;99.90;;;;;;5017305;28;20056;-70
2023/10/28 08:43:23;;;;;;;16.70;11.57;;;11.00;99.90;;;;;;5033091;28;20086;-71
2023/10/28 08:45:49;;;;;;;14.88;11.15;;;11.10;99.90;;;;;;5033263;28;20613;-70
2023/10/28 08:48:15;;;;;;;14.23;11.15;;;11.10;99.90;;;;;;5032947;28;20412;-69
2023/10/28 08:50:45;;;;;;;13.95;10.15;;;11.30;99.90;;;;;;4999419;28;20491;-70
2023/10/28 08:53:15;;;;;;;15.63;10.68;;;11.20;99.90;;;;;;5031384;28;20044;-70
2023/10/28 08:55:41;;;;;;;13.35;9.38;;;11.50;99.90;;;;;;5030391;28;20488;-70
2023/10/28 08:58:07;;;;;;;16.05;9.82;;;11.50;99.90;;;;;;5013464;28;20044;-70
2023/10/28 09:00:35;;;;;;;13.02;9.20;;;11.60;99.90;;;;;;4997942;28;20446;-71
2023/10/28 09:03:04;;;;;;;12.48;8.57;;;11.70;99.90;;;;;;5014419;28;20458;-70
2023/10/28 09:05:30;;;;;;;10.18;8.00;;;11.90;99.90;;;;;;5015288;28;20036;-70
2023/10/28 09:07:56;;;;;;;14.68;7.88;;;11.80;99.90;;;;;;5031416;28;20045;-70
2023/10/28 09:10:22;;;;;;;11.20;7.68;;;11.90;99.90;;;;;;5013846;28;20711;-69
2023/10/28 09:12:50;;;;;;;9.18;6.80;;;11.90;99.90;;;;;;5031010;28;20346;-70
2023/10/28 09:15:17;;;;;;;12.43;7.20;;;12.00;99.90;;;;;;5007668;28;20048;-70
2023/10/28 09:17:43;;;;;;;13.20;7.80;;;12.00;99.90;;;;;;4997822;28;20105;-70
2023/10/28 09:20:11;;;;;;;11.45;7.20;;;11.90;99.90;;;;;;5031724;28;20041;-70
2023/10/28 09:22:39;;;;;;;9.63;7.00;;;11.80;99.90;;;;;;5013261;28;20445;-70
2023/10/28 09:25:05;;;;;;;11.98;7.15;;;11.80;99.90;;;;;;5014939;28;20260;-69
2023/10/28 09:27:32;;;;;;;9.32;6.82;;;11.70;99.90;;;;;;5012707;28;20269;-69
2023/10/28 09:30:10;;;;;;;11.93;7.53;;;11.60;99.90;;;;;;5049309;28;20627;-70
2023/10/28 09:32:37;;;;;;;10.55;6.93;;;11.80;99.90;;;;;;4998859;28;20055;-69
2023/10/28 09:35:08;;;;;;;9.50;6.35;;;11.80;99.90;;;;;;5030307;28;20048;-70
2023/10/28 09:37:35;;;;;;;10.07;6.63;;;11.80;99.90;;;;;;5013115;28;20260;-71
2023/10/28 09:40:06;;;;;;;10.50;6.30;;;11.80;99.90;;;;;;5031071;28;20237;-71
2023/10/28 09:42:36;;;;;;;10.90;6.20;;;11.90;99.90;;;;;;5031115;28;20040;-70
2023/10/28 09:45:06;;;;;;;12.27;6.40;;;11.90;99.90;;;;;;5031288;28;20674;-70
2023/10/28 09:47:51;;;;;;;10.05;5.20;;;12.00;99.90;;;;;;5010457;28;20115;-71
2023/10/28 09:50:22;;;;;;;8.95;5.47;;;12.00;99.90;;;;;;5012135;28;20678;-70
2023/10/28 09:52:51;;;;;;;10.32;5.35;;;12.00;99.90;;;;;;5031815;28;20328;-71
2023/10/28 09:55:24;;;;;;;6.93;4.80;;;11.90;99.90;;;;;;5033280;28;20048;-71
2023/10/28 09:57:55;;;;;;;8.68;5.55;;;11.80;99.90;;;;;;5029836;28;20033;-70
2023/10/28 10:00:25;;;;;;;8.35;4.90;;;11.90;99.90;;;;;;5029932;28;20132;-70
2023/10/28 10:03:03;;;;;;;8.07;5.07;;;12.00;99.90;;;;;;5013894;28;20041;-69
2023/10/28 10:05:40;;;;;;;7.00;4.65;;;12.20;99.90;;;;;;5029264;28;20110;-69
2023/10/28 10:08:21;;;;;;;8.02;4.68;;;12.30;99.90;;;;;;5029523;28;20053;-69
2023/10/28 10:10:49;;;;;;;8.43;5.00;;;12.30;99.90;;;;;;5011363;28;20052;-70
2023/10/28 10:13:17;;;;;;;8.75;5.07;;;12.40;99.90;;;;;;5035560;28;20057;-70
2023/10/28 10:16:00;;;;;;;9.65;5.10;;;12.20;99.90;;;;;;5036110;28;20060;-70
2023/10/28 10:18:38;;;;;;;7.60;4.22;;;12.20;99.90;;;;;;5005178;28;20036;-70
2023/10/28 10:21:05;;;;;;;10.25;4.75;;;12.10;99.90;;;;;;5018356;28;20063;-72
2023/10/28 10:23:44;;;;;;;9.15;4.57;;;12.00;99.90;;;;;;5018057;28;20095;-71
2023/10/28 10:26:25;;;;;;;6.85;4.63;;;12.00;99.90;;;;;;5018383;28;20365;-71
2023/10/28 10:28:55;;;;;;;5.93;4.00;;;12.00;99.90;;;;;;5033770;28;20033;-72
2023/10/28 10:31:29;;;;;;;9.77;4.50;;;12.10;99.90;;;;;;5034076;28;20048;-70
2023/10/28 10:34:08;;;;;;;8.63;4.60;;;12.20;99.90;;;;;;5012904;28;20446;-70
2023/10/28 10:36:40;;;;;;;7.45;4.10;;;12.20;99.90;;;;;;5034008;28;20055;-71
2023/10/28 10:39:14;;;;;;;9.98;4.70;;;12.10;99.90;;;;;;5017506;28;20052;-72
2023/10/28 10:41:41;;;;;;;8.95;4.13;;;12.20;99.90;;;;;;5005339;28;20040;-70
2023/10/28 10:44:24;;;;;;;8.68;3.92;;;12.10;99.90;;;;;;5017829;28;20399;-70
2023/10/28 10:46:49;;;;;;;7.97;4.15;;;12.10;99.90;;;;;;5035385;28;20091;-73
2023/10/28 10:49:15;;;;;;;6.47;3.97;;;12.00;99.90;;;;;;4988643;28;20081;-72
2023/10/28 10:51:42;;;;;;;7.57;4.03;;;12.10;99.90;;;;;;5034691;28;20119;-72
2023/10/28 10:54:08;;;;;;;9.38;4.25;;;12.00;99.90;;;;;;5019509;28;20048;-72
2023/10/28 10:56:33;;;;;;;6.97;3.83;;;11.90;99.90;;;;;;4987313;28;20109;-72
2023/10/28 10:58:59;;;;;;;7.70;3.90;;;11.90;99.90;;;;;;5002433;28;20047;-73
2023/10/28 11:01:25;;;;;;;6.10;3.90;;;11.90;99.90;;;;;;5034562;28;20110;-70
2023/10/28 11:03:52;;;;;;;8.48;3.95;;;11.90;99.90;;;;;;5034701;28;20046;-72
2023/10/28 11:06:17;;;;;;;9.68;3.90;;;12.00;99.90;;;;;;5017471;28;20049;-72
2023/10/28 11:08:43;;;;;;;8.85;3.70;;;12.00;99.90;;;;;;5051715;28;20052;-71
2023/10/28 11:11:09;;;;;;;9.40;3.58;;;12.00;99.90;;;;;;5035206;28;20313;-70
2023/10/28 11:13:34;;;;;;;12.23;3.90;;;12.00;99.90;;;;;;5016538;28;20432;-71
2023/10/28 11:16:00;;;;;;;9.48;3.50;;;12.10;99.90;;;;;;5003504;28;20485;-72
2023/10/28 11:18:26;;;;;;;9.02;3.17;;;12.10;99.90;;;;;;5019119;28;20040;-72
2023/10/28 11:20:52;;;;;;;8.55;3.20;;;12.30;99.90;;;;;;5034178;28;20048;-72
2023/10/28 11:23:19;;;;;;;12.02;3.50;;;12.20;99.90;;;;;;5034729;28;20044;-71
2023/10/28 11:25:47;;;;;;;5.55;2.60;;;12.20;99.90;;;;;;5010668;28;20059;-70
2023/10/28 11:28:13;;;;;;;11.88;3.33;;;12.30;99.90;;;;;;5052835;28;20135;-72
2023/10/28 11:30:39;;;;;;;7.25;3.30;;;12.40;99.90;;;;;;5035330;28;20119;-71
2023/10/28 11:33:07;;;;;;;10.52;3.38;;;12.40;99.90;;;;;;5034092;28;20488;-72
2023/10/28 11:35:36;;;;;;;8.82;3.90;;;12.50;99.90;;;;;;5016896;28;20048;-71
2023/10/28 11:38:03;;;;;;;8.65;4.18;;;12.50;99.90;;;;;;5000763;28;20040;-72
2023/10/28 11:40:29;;;;;;;8.18;3.85;;;12.50;99.90;;;;;;5019383;28;20044;-72
2023/10/28 11:42:55;;;;;;;9.85;3.65;;;12.40;99.90;;;;;;5018693;28;20167;-71
2023/10/28 11:45:21;;;;;;;8.30;4.15;;;12.30;99.90;;;;;;5016251;28;20029;-71
2023/10/28 11:47:46;;;;;;;9.57;3.88;;;12.30;99.90;;;;;;5017318;28;20036;-72
2023/10/28 11:50:12;;;;;;;8.13;4.18;;;12.20;99.90;;;;;;5032476;28;20106;-72
2023/10/28 11:52:38;;;;;;;12.55;4.10;;;12.30;99.90;;;;;;5030278;28;20044;-70
2023/10/28 11:55:08;;;;;;;7.22;3.53;;;12.20;99.90;;;;;;5016018;28;20040;-71
2023/10/28 11:57:34;;;;;;;8.73;3.75;;;12.30;99.90;;;;;;5003050;28;20470;-72
2023/10/28 11:59:59;;;;;;;10.85;3.63;;;12.40;99.90;;;;;;5017153;28;20050;-72
2023/10/28 12:02:25;;;;;;;8.52;4.35;;;12.40;99.90;;;;;;5011821;28;20043;-72
2023/10/28 12:04:51;;;;;;;9.70;4.03;;;12.60;99.90;;;;;;5018290;28;20346;-72
2023/10/28 12:07:17;;;;;;;8.23;3.97;;;12.70;99.90;;;;;;5019450;28;20040;-72
2023/10/28 12:09:42;;;;;;;8.13;3.55;;;12.80;99.90;;;;;;5018758;28;20075;-72
2023/10/28 12:12:09;;;;;;;7.13;3.33;;;12.80;99.90;;;;;;5016294;28;20283;-72
2023/10/28 12:14:35;;;;;;;8.82;3.45;;;12.80;99.90;;;;;;5033614;28;20104;-71
2023/10/28 12:17:01;;;;;;;7.82;3.00;;;12.80;99.90;;;;;;5029793;28;20116;-72
2023/10/28 12:19:27;;;;;;;5.63;2.83;;;12.80;99.90;;;;;;5014009;28;20348;-73
2023/10/28 12:21:53;;;;;;;9.13;3.35;;;12.90;99.90;;;;;;5013052;28;20048;-71
2023/10/28 12:24:19;;;;;;;8.43;3.22;;;12.80;99.90;;;;;;5033132;28;20052;-71
2023/10/28 12:26:45;;;;;;;7.30;3.13;;;12.90;99.90;;;;;;5015709;28;20096;-71
2023/10/28 12:29:11;;;;;;;8.88;3.58;;;12.90;99.90;;;;;;5031726;28;20120;-72